createdAt,value
2019-02-10T00:01:44.856Z,2.83
2019-02-10T00:04:13.412Z,3.10
2019-02-10T00:06:42.029Z,2.67
2019-02-10T00:09:09.989Z,3.17
2019-02-10T00:11:37.882Z,2.10
2019-02-10T00:14:06.285Z,2.60
2019-02-10T00:16:34.170Z,2.23
2019-02-10T00:19:02.723Z,2.13
2019-02-10T00:21:31.176Z,2.00
2019-02-10T00:23:59.191Z,2.10
2019-02-10T00:26:27.148Z,2.47
2019-02-10T00:28:55.300Z,3.13
2019-02-10T00:31:22.923Z,2.93
2019-02-10T00:33:50.845Z,2.07
2019-02-10T00:36:18.809Z,2.40
2019-02-10T00:38:46.445Z,3.40
2019-02-10T00:41:14.097Z,2.20
2019-02-10T00:43:41.797Z,2.07
2019-02-10T00:46:10.457Z,2.60
2019-02-10T00:48:38.638Z,2.53
2019-02-10T00:51:07.022Z,2.37
2019-02-10T00:53:35.047Z,2.40
2019-02-10T00:56:02.969Z,2.37
2019-02-10T00:58:31.384Z,2.93
2019-02-10T01:00:59.380Z,2.10
2019-02-10T01:03:29.019Z,2.23
2019-02-10T01:05:57.077Z,2.03
2019-02-10T01:08:25.093Z,2.43
2019-02-10T01:10:53.059Z,2.80
2019-02-10T01:13:21.029Z,2.50
2019-02-10T01:15:49.213Z,2.17
2019-02-10T01:18:16.866Z,2.43
2019-02-10T01:20:44.918Z,2.20
2019-02-10T01:23:12.572Z,2.07
2019-02-10T01:25:40.634Z,2.00
2019-02-10T01:28:08.379Z,1.70
2019-02-10T01:30:36.458Z,2.40
2019-02-10T01:33:04.197Z,2.20
2019-02-10T01:35:32.095Z,2.30
2019-02-10T01:38:00.258Z,2.63
2019-02-10T01:40:28.468Z,2.17
2019-02-10T01:42:56.628Z,2.30
2019-02-10T01:45:24.573Z,2.30
2019-02-10T01:47:52.408Z,2.57
2019-02-10T01:50:20.737Z,2.13
2019-02-10T01:52:49.076Z,2.17
2019-02-10T01:55:17.305Z,2.00
2019-02-10T01:57:45.294Z,2.40
2019-02-10T02:00:13.936Z,2.20
2019-02-10T02:02:42.222Z,2.40
2019-02-10T02:05:10.421Z,2.50
2019-02-10T02:07:38.565Z,2.03
2019-02-10T02:10:07.240Z,2.20
2019-02-10T02:12:34.919Z,2.03
2019-02-10T02:15:02.928Z,2.10
2019-02-10T02:17:31.126Z,2.40
2019-02-10T02:19:59.326Z,2.20
2019-02-10T02:22:27.477Z,2.40
2019-02-10T02:24:55.121Z,2.47
2019-02-10T02:27:22.761Z,2.43
2019-02-10T02:29:50.746Z,2.40
2019-02-10T02:32:18.676Z,2.53
2019-02-10T02:34:46.817Z,2.30
2019-02-10T02:37:14.451Z,2.70
2019-02-10T02:39:42.096Z,2.70
2019-02-10T02:42:10.335Z,2.63
2019-02-10T02:44:38.252Z,2.40
2019-02-10T02:47:06.145Z,2.40
2019-02-10T02:49:34.351Z,2.53
2019-02-10T02:52:02.576Z,2.90
2019-02-10T02:54:30.468Z,2.50
2019-02-10T02:56:58.764Z,2.70
2019-02-10T02:59:27.340Z,2.10
2019-02-10T03:01:55.261Z,2.50
2019-02-10T03:04:23.489Z,2.70
2019-02-10T03:06:51.774Z,1.97
2019-02-10T03:09:19.417Z,2.27
2019-02-10T03:11:48.013Z,2.80
2019-02-10T03:14:15.945Z,2.33
2019-02-10T03:16:43.786Z,2.30
2019-02-10T03:19:12.024Z,1.83
2019-02-10T03:21:39.932Z,2.57
2019-02-10T03:24:07.962Z,2.60
2019-02-10T03:26:35.895Z,2.00
2019-02-10T03:29:03.839Z,2.07
2019-02-10T03:31:31.542Z,2.10
2019-02-10T03:34:00.156Z,2.33
2019-02-10T03:36:28.497Z,2.47
2019-02-10T03:38:56.148Z,2.30
2019-02-10T03:41:24.165Z,2.53
2019-02-10T03:43:51.812Z,2.30
2019-02-10T03:46:19.749Z,2.00
2019-02-10T03:48:47.687Z,2.10
2019-02-10T03:51:15.435Z,2.53
2019-02-10T03:53:43.125Z,2.00
2019-02-10T03:56:11.311Z,2.30
2019-02-10T03:58:39.940Z,1.90
2019-02-10T04:01:07.888Z,2.07
2019-02-10T04:03:36.421Z,1.80
2019-02-10T04:06:04.447Z,2.20
2019-02-10T04:08:32.077Z,1.70
2019-02-10T04:10:59.991Z,1.67
2019-02-10T04:13:28.357Z,1.90
2019-02-10T04:15:56.241Z,1.80
2019-02-10T04:18:24.216Z,1.73
2019-02-10T04:20:52.145Z,1.70
2019-02-10T04:23:20.161Z,1.63
2019-02-10T04:25:48.530Z,1.50
2019-02-10T04:28:16.169Z,1.60
2019-02-10T04:30:43.857Z,1.93
2019-02-10T04:33:11.491Z,1.40
2019-02-10T04:35:39.590Z,1.50
2019-02-10T04:38:07.854Z,1.63
2019-02-10T04:40:35.495Z,1.90
2019-02-10T04:43:03.389Z,1.80
2019-02-10T04:45:31.029Z,1.73
2019-02-10T04:47:58.693Z,1.37
2019-02-10T04:50:26.869Z,1.83
2019-02-10T04:52:54.786Z,1.67
2019-02-10T04:55:22.721Z,1.20
2019-02-10T04:57:50.430Z,1.97
2019-02-10T05:00:18.109Z,1.47
2019-02-10T05:02:46.081Z,1.10
2019-02-10T05:05:14.103Z,1.23
2019-02-10T05:07:42.102Z,1.23
2019-02-10T05:10:10.450Z,1.10
2019-02-10T05:12:38.434Z,1.50
2019-02-10T05:15:06.683Z,1.63
2019-02-10T05:17:34.345Z,1.20
2019-02-10T05:20:02.785Z,1.50
2019-02-10T05:22:30.746Z,1.37
2019-02-10T05:24:58.499Z,1.10
2019-02-10T05:27:26.480Z,1.20
2019-02-10T05:29:54.710Z,1.20
2019-02-10T05:32:23.028Z,1.30
2019-02-10T05:34:50.945Z,1.30
2019-02-10T05:37:19.221Z,1.40
2019-02-10T05:39:47.155Z,1.20
2019-02-10T05:42:15.025Z,1.70
2019-02-10T05:44:43.048Z,1.10
2019-02-10T05:47:11.026Z,1.40
2019-02-10T05:49:39.597Z,1.20
2019-02-10T05:52:07.238Z,0.90
2019-02-10T05:54:35.269Z,1.10
2019-02-10T05:57:02.931Z,1.30
2019-02-10T05:59:31.069Z,0.90
2019-02-10T06:02:03.590Z,0.93
2019-02-10T06:04:32.630Z,1.10
2019-02-10T06:07:01.767Z,1.20
2019-02-10T06:09:29.685Z,1.20
2019-02-10T06:11:57.406Z,1.07
2019-02-10T06:14:25.689Z,1.23
2019-02-10T06:16:53.361Z,1.60
2019-02-10T06:19:21.081Z,1.20
2019-02-10T06:21:49.755Z,1.00
2019-02-10T06:24:17.944Z,1.10
2019-02-10T06:26:45.925Z,1.20
2019-02-10T06:29:14.203Z,1.10
2019-02-10T06:31:42.127Z,1.00
2019-02-10T06:34:10.408Z,1.60
2019-02-10T06:36:38.573Z,1.50
2019-02-10T06:39:06.865Z,1.20
2019-02-10T06:41:35.141Z,1.23
2019-02-10T06:44:03.092Z,1.30
2019-02-10T06:46:31.441Z,0.97
2019-02-10T06:48:59.624Z,1.03
2019-02-10T06:51:27.827Z,1.13
2019-02-10T06:53:56.106Z,1.10
2019-02-10T06:56:24.441Z,0.90
2019-02-10T06:58:52.072Z,1.03
2019-02-10T07:01:35.062Z,0.90
2019-02-10T07:04:07.774Z,1.10
2019-02-10T07:06:35.780Z,1.00
2019-02-10T07:09:04.121Z,1.00
2019-02-10T07:11:32.365Z,0.90
2019-02-10T07:14:00.632Z,1.03
2019-02-10T07:16:42.164Z,1.03
2019-02-10T07:19:27.879Z,1.30
2019-02-10T07:21:55.512Z,1.00
2019-02-10T07:24:48.455Z,0.80
2019-02-10T07:27:21.304Z,0.70
2019-02-10T07:30:08.577Z,0.80
2019-02-10T07:32:41.038Z,0.70
2019-02-10T07:35:30.789Z,0.90
2019-02-10T07:38:07.259Z,1.00
2019-02-10T07:40:54.680Z,0.77
2019-02-10T07:43:47.650Z,1.00
2019-02-10T07:46:34.706Z,0.80
2019-02-10T07:49:24.561Z,1.17
2019-02-10T07:52:11.580Z,1.10
2019-02-10T07:54:44.120Z,0.90
2019-02-10T07:57:40.252Z,0.70
2019-02-10T08:00:37.572Z,0.93
2019-02-10T08:03:43.065Z,0.83
2019-02-10T08:06:30.148Z,0.80
2019-02-10T08:09:04.989Z,0.90
2019-02-10T08:11:55.276Z,0.80
2019-02-10T08:14:41.041Z,1.10
2019-02-10T08:17:21.638Z,1.10
2019-02-10T08:20:05.041Z,1.00
2019-02-10T08:22:54.921Z,0.90
2019-02-10T08:25:29.773Z,1.00
2019-02-10T08:28:17.135Z,2.57
2019-02-10T08:31:03.317Z,1.03
2019-02-10T08:34:08.524Z,1.03
2019-02-10T08:36:58.348Z,0.90
2019-02-10T08:39:56.982Z,1.00
2019-02-10T08:42:51.081Z,1.07
2019-02-10T08:45:34.648Z,0.83
2019-02-10T08:48:10.955Z,1.10
2019-02-10T08:50:57.816Z,1.00
2019-02-10T08:53:27.437Z,1.20
2019-02-10T08:55:57.797Z,0.90
2019-02-10T08:58:33.116Z,1.00
2019-02-10T09:01:01.112Z,0.90
2019-02-10T09:03:29.110Z,1.00
2019-02-10T09:05:57.313Z,1.00
2019-02-10T09:08:25.664Z,1.23
2019-02-10T09:10:53.877Z,2.00
2019-02-10T09:13:21.831Z,1.00
2019-02-10T09:15:49.731Z,1.13
2019-02-10T09:18:17.932Z,1.10
2019-02-10T09:20:45.948Z,1.00
2019-02-10T09:23:13.957Z,1.00
2019-02-10T09:25:41.991Z,1.60
2019-02-10T09:28:10.196Z,1.30
2019-02-10T09:30:38.660Z,1.27
2019-02-10T09:33:06.342Z,1.30
2019-02-10T09:35:34.364Z,1.07
2019-02-10T09:38:02.285Z,0.90
2019-02-10T09:40:30.625Z,0.97
2019-02-10T09:42:59.306Z,0.90
2019-02-10T09:45:27.068Z,1.00
2019-02-10T09:47:54.809Z,0.97
2019-02-10T09:50:23.321Z,0.97
2019-02-10T09:52:51.296Z,0.90
2019-02-10T09:55:19.583Z,1.10
2019-02-10T09:57:48.050Z,1.00
2019-02-10T10:00:15.969Z,0.87
2019-02-10T10:02:44.196Z,1.40
2019-02-10T10:05:12.155Z,1.13
2019-02-10T10:07:40.432Z,0.93
2019-02-10T10:10:09.381Z,1.10
2019-02-10T10:12:37.320Z,0.77
2019-02-10T10:15:05.573Z,1.07
2019-02-10T10:17:33.541Z,1.00
2019-02-10T10:20:02.084Z,1.00
2019-02-10T10:22:30.030Z,0.87
2019-02-10T10:24:57.661Z,0.90
2019-02-10T10:27:26.045Z,1.03
2019-02-10T10:29:54.003Z,0.70
2019-02-10T10:32:22.260Z,0.80
2019-02-10T10:34:49.893Z,0.63
2019-02-10T10:37:18.112Z,0.70
2019-02-10T10:39:46.392Z,0.90
2019-02-10T10:42:15.045Z,0.80
2019-02-10T10:44:43.090Z,0.80
2019-02-10T10:47:11.121Z,1.00
2019-02-10T10:49:39.497Z,1.10
2019-02-10T10:52:07.137Z,0.90
2019-02-10T10:54:42.493Z,1.00
2019-02-10T10:57:05.145Z,0.70
2019-02-10T10:59:33.430Z,0.80
2019-02-10T11:02:01.161Z,2.73
2019-02-10T11:04:29.460Z,0.90
2019-02-10T11:06:57.101Z,0.80
2019-02-10T11:09:25.400Z,0.97
2019-02-10T11:11:53.309Z,0.80
2019-02-10T11:14:21.519Z,1.03
2019-02-10T11:16:49.152Z,1.13
2019-02-10T11:19:17.150Z,1.00
2019-02-10T11:21:45.112Z,0.90
2019-02-10T11:24:13.314Z,1.40
2019-02-10T11:26:41.469Z,1.20
2019-02-10T11:29:10.080Z,1.00
2019-02-10T11:31:38.573Z,0.80
2019-02-10T11:34:06.936Z,1.03
2019-02-10T11:36:35.148Z,1.00
2019-02-10T11:39:05.239Z,1.10
2019-02-10T11:41:33.169Z,1.10
2019-02-10T11:44:01.365Z,1.03
2019-02-10T11:46:29.273Z,1.00
2019-02-10T11:48:58.644Z,0.90
2019-02-10T11:51:27.222Z,1.30
2019-02-10T11:54:00.864Z,1.00
2019-02-10T11:56:29.020Z,0.93
2019-02-10T11:58:57.380Z,0.90
2019-02-10T12:01:25.453Z,0.80
2019-02-10T12:03:53.734Z,0.90
2019-02-10T12:06:21.832Z,1.20
2019-02-10T12:08:49.798Z,1.10
2019-02-10T12:11:17.516Z,1.03
2019-02-10T12:13:45.452Z,1.20
2019-02-10T12:16:13.089Z,1.17
2019-02-10T12:18:41.348Z,1.23
2019-02-10T12:21:09.067Z,1.00
2019-02-10T12:23:36.973Z,0.67
2019-02-10T12:26:05.224Z,0.70
2019-02-10T12:28:33.216Z,0.60
2019-02-10T12:31:01.416Z,0.67
2019-02-10T12:33:29.319Z,0.80
2019-02-10T12:35:58.561Z,0.83
2019-02-10T12:38:26.381Z,0.60
2019-02-10T12:40:54.296Z,0.60
2019-02-10T12:43:22.209Z,0.60
2019-02-10T12:45:50.166Z,0.80
2019-02-10T12:48:18.200Z,0.70
2019-02-10T12:50:46.172Z,1.30
2019-02-10T12:53:14.508Z,0.60
2019-02-10T12:55:42.508Z,0.50
2019-02-10T12:58:10.144Z,0.60
2019-02-10T13:00:38.104Z,1.00
2019-02-10T13:03:06.116Z,0.50
2019-02-10T13:05:34.057Z,0.60
2019-02-10T13:08:02.175Z,0.60
2019-02-10T13:10:30.742Z,0.90
2019-02-10T13:12:58.557Z,0.60
2019-02-10T13:15:26.421Z,0.87
2019-02-10T13:17:54.449Z,0.90
2019-02-10T13:20:22.398Z,0.80
2019-02-10T13:22:50.300Z,0.80
2019-02-10T13:25:18.328Z,0.87
2019-02-10T13:27:46.473Z,0.90
2019-02-10T13:30:14.512Z,1.07
2019-02-10T13:32:42.233Z,1.07
2019-02-10T13:35:11.092Z,1.13
2019-02-10T13:37:38.780Z,1.10
2019-02-10T13:40:16.247Z,0.80
2019-02-10T13:42:37.749Z,0.77
2019-02-10T13:45:06.200Z,1.00
2019-02-10T13:47:34.216Z,0.67
2019-02-10T13:50:02.973Z,1.00
2019-02-10T13:52:31.145Z,0.50
2019-02-10T13:54:59.057Z,0.80
2019-02-10T13:57:31.444Z,0.70
2019-02-10T13:59:59.124Z,0.70
2019-02-10T14:02:27.414Z,0.90
2019-02-10T14:04:55.756Z,0.80
2019-02-10T14:07:24.511Z,1.90
2019-02-10T14:09:54.315Z,2.03
2019-02-10T14:12:23.509Z,1.43
2019-02-10T14:14:53.818Z,1.87
2019-02-10T14:17:21.450Z,2.93
2019-02-10T14:19:51.034Z,1.37
2019-02-10T14:22:18.748Z,1.17
2019-02-10T14:24:47.020Z,1.37
2019-02-10T14:27:14.673Z,1.00
2019-02-10T14:29:45.358Z,1.13
2019-02-10T14:32:14.333Z,1.30
2019-02-10T14:34:46.192Z,1.07
2019-02-10T14:37:14.562Z,1.00
2019-02-10T14:39:42.488Z,1.43
2019-02-10T14:42:10.800Z,1.30
2019-02-10T14:44:38.840Z,1.30
2019-02-10T14:47:06.841Z,1.40
2019-02-10T14:49:37.073Z,1.20
2019-02-10T14:52:05.647Z,1.30
2019-02-10T14:54:35.624Z,0.93
2019-02-10T14:57:04.036Z,0.67
2019-02-10T14:59:31.913Z,0.90
2019-02-10T15:02:00.617Z,0.80
2019-02-10T15:04:32.327Z,0.80
2019-02-10T15:07:01.360Z,0.60
2019-02-10T15:09:32.686Z,0.60
2019-02-10T15:12:02.123Z,0.77
2019-02-10T15:14:31.868Z,0.70
2019-02-10T15:17:00.223Z,0.90
2019-02-10T15:19:28.291Z,0.97
2019-02-10T15:21:56.733Z,1.00
2019-02-10T15:24:25.125Z,0.90
2019-02-10T15:26:53.349Z,0.90
2019-02-10T15:29:21.990Z,0.80
2019-02-10T15:31:50.045Z,0.80
2019-02-10T15:34:18.013Z,1.00
2019-02-10T15:36:46.494Z,1.23
2019-02-10T15:39:14.840Z,0.90
2019-02-10T15:41:43.345Z,0.90
2019-02-10T15:44:11.009Z,0.80
2019-02-10T15:46:39.099Z,1.00
2019-02-10T15:49:07.134Z,1.10
2019-02-10T15:51:37.212Z,0.70
2019-02-10T15:54:05.249Z,0.97
2019-02-10T15:56:33.484Z,1.10
2019-02-10T15:59:01.501Z,1.10
2019-02-10T16:01:33.512Z,0.80
2019-02-10T16:04:01.518Z,1.20
2019-02-10T16:06:29.263Z,1.50
2019-02-10T16:08:57.196Z,1.20
2019-02-10T16:11:24.928Z,1.53
2019-02-10T16:13:53.442Z,1.40
2019-02-10T16:16:21.396Z,1.20
2019-02-10T16:18:49.689Z,1.43
2019-02-10T16:21:17.932Z,1.80
2019-02-10T16:23:46.176Z,1.77
2019-02-10T16:26:14.072Z,1.67
2019-02-10T16:28:41.965Z,1.50
2019-02-10T16:31:09.999Z,1.40
2019-02-10T16:33:37.940Z,1.90
2019-02-10T16:36:05.888Z,1.77
2019-02-10T16:38:38.472Z,1.50
2019-02-10T16:41:07.113Z,1.10
2019-02-10T16:43:35.268Z,1.23
2019-02-10T16:46:03.186Z,1.20
2019-02-10T16:48:31.504Z,1.10
2019-02-10T16:50:59.806Z,1.30
2019-02-10T16:53:27.833Z,1.40
2019-02-10T16:55:56.249Z,1.30
2019-02-10T16:58:24.224Z,1.50
2019-02-10T17:00:52.145Z,1.30
2019-02-10T17:03:20.410Z,1.17
2019-02-10T17:05:48.364Z,1.27
2019-02-10T17:08:18.091Z,1.20
2019-02-10T17:10:51.895Z,1.10
2019-02-10T17:13:19.929Z,1.60
2019-02-10T17:15:48.050Z,1.20
2019-02-10T17:18:16.340Z,1.10
2019-02-10T17:20:45.097Z,1.27
2019-02-10T17:23:13.277Z,1.10
2019-02-10T17:25:41.742Z,1.50
2019-02-10T17:28:09.463Z,2.13
2019-02-10T17:30:37.452Z,2.20
2019-02-10T17:33:06.143Z,1.80
2019-02-10T17:35:33.865Z,2.23
2019-02-10T17:38:01.782Z,1.73
2019-02-10T17:40:34.413Z,2.00
2019-02-10T17:43:03.188Z,1.60
2019-02-10T17:45:30.886Z,1.63
2019-02-10T17:47:59.073Z,1.80
2019-02-10T17:50:27.200Z,2.57
2019-02-10T17:52:56.217Z,1.90
2019-02-10T17:55:23.912Z,2.13
2019-02-10T17:57:51.630Z,2.00
2019-02-10T18:00:21.477Z,1.63
2019-02-10T18:02:49.556Z,2.00
2019-02-10T18:05:17.200Z,2.00
2019-02-10T18:07:45.152Z,1.80
2019-02-10T18:10:12.877Z,1.30
2019-02-10T18:12:40.876Z,1.33
2019-02-10T18:15:26.613Z,1.20
2019-02-10T18:18:03.894Z,1.50
2019-02-10T18:20:55.682Z,1.60
2019-02-10T18:23:51.584Z,1.50
2019-02-10T18:26:42.041Z,1.90
2019-02-10T18:29:46.952Z,1.33
2019-02-10T18:32:51.916Z,1.30
2019-02-10T18:35:44.879Z,1.20
2019-02-10T18:38:29.429Z,1.50
2019-02-10T18:41:12.261Z,1.60
2019-02-10T18:43:58.149Z,2.00
2019-02-10T18:46:33.053Z,2.07
2019-02-10T18:49:11.680Z,2.13
2019-02-10T18:51:52.247Z,2.03
2019-02-10T18:54:29.882Z,1.87
2019-02-10T18:57:13.810Z,2.20
2019-02-10T19:00:02.673Z,2.67
2019-02-10T19:02:46.805Z,2.20
2019-02-10T19:05:21.417Z,2.00
2019-02-10T19:08:01.381Z,2.47
2019-02-10T19:10:37.849Z,3.30
2019-02-10T19:13:19.081Z,2.40
2019-02-10T19:16:04.773Z,3.00
2019-02-10T19:18:50.493Z,2.73
2019-02-10T19:21:31.246Z,2.80
2019-02-10T19:24:21.773Z,2.40
2019-02-10T19:27:04.466Z,2.17
2019-02-10T19:29:57.465Z,1.93
2019-02-10T19:32:38.894Z,3.20
2019-02-10T19:35:44.184Z,2.20
2019-02-10T19:38:23.995Z,2.27
2019-02-10T19:41:09.764Z,2.17
2019-02-10T19:43:50.997Z,2.50
2019-02-10T19:46:30.605Z,2.23
2019-02-10T19:49:26.529Z,1.93
2019-02-10T19:52:23.185Z,2.10
2019-02-10T19:55:28.695Z,1.83
2019-02-10T19:58:21.823Z,1.27
2019-02-10T20:01:24.033Z,1.80
2019-02-10T20:04:02.063Z,1.83
2019-02-10T20:06:38.183Z,1.30
2019-02-10T20:09:31.117Z,1.80
2019-02-10T20:12:20.952Z,1.30
2019-02-10T20:15:02.630Z,1.50
2019-02-10T20:17:55.203Z,1.90
2019-02-10T20:20:44.653Z,1.40
2019-02-10T20:23:31.988Z,1.50
2019-02-10T20:26:18.497Z,1.40
2019-02-10T20:29:04.582Z,1.60
2019-02-10T20:31:54.476Z,1.60
2019-02-10T20:34:36.916Z,1.70
2019-02-10T20:37:19.827Z,1.70
2019-02-10T20:40:25.405Z,1.50
2019-02-10T20:43:21.862Z,1.77
2019-02-10T20:46:22.315Z,1.70
2019-02-10T20:49:03.921Z,1.40
2019-02-10T20:52:08.102Z,1.83
2019-02-10T20:54:40.921Z,1.97
2019-02-10T20:57:30.747Z,1.60
2019-02-10T21:00:27.235Z,1.60
2019-02-10T21:03:23.840Z,2.00
2019-02-10T21:06:19.178Z,1.67
2019-02-10T21:09:21.363Z,1.83
2019-02-10T21:12:20.627Z,1.70
2019-02-10T21:15:15.241Z,1.50
2019-02-10T21:17:50.098Z,2.00
2019-02-10T21:20:35.054Z,1.50
2019-02-10T21:23:14.281Z,1.20
2019-02-10T21:26:00.416Z,1.50
2019-02-10T21:28:53.709Z,1.10
2019-02-10T21:31:46.705Z,0.97
2019-02-10T21:34:49.309Z,1.37
2019-02-10T21:37:28.446Z,1.20
2019-02-10T21:40:27.437Z,1.10
2019-02-10T21:43:23.245Z,1.13
2019-02-10T21:46:12.216Z,1.30
2019-02-10T21:49:04.632Z,1.57
2019-02-10T21:51:32.286Z,1.20
2019-02-10T21:54:00.241Z,1.33
2019-02-10T21:56:28.179Z,1.30
2019-02-10T21:58:55.798Z,1.00
2019-02-10T22:01:24.364Z,1.00
2019-02-10T22:03:52.343Z,1.20
2019-02-10T22:06:20.386Z,0.90
2019-02-10T22:08:48.267Z,1.20
2019-02-10T22:11:16.493Z,1.50
2019-02-10T22:13:44.420Z,1.07
2019-02-10T22:16:12.433Z,1.50
2019-02-10T22:18:40.655Z,1.10
2019-02-10T22:21:08.916Z,1.23
2019-02-10T22:23:36.862Z,1.40
2019-02-10T22:26:04.868Z,1.20
2019-02-10T22:28:32.504Z,1.40
2019-02-10T22:31:00.392Z,1.30
2019-02-10T22:33:28.385Z,1.37
2019-02-10T22:35:56.025Z,1.50
2019-02-10T22:38:23.981Z,1.50
2019-02-10T22:40:52.281Z,1.70
2019-02-10T22:43:20.221Z,1.60
2019-02-10T22:45:48.537Z,1.80
2019-02-10T22:48:16.317Z,1.50
2019-02-10T22:50:44.906Z,1.47
2019-02-10T22:53:12.912Z,1.70
2019-02-10T22:55:41.073Z,1.60
2019-02-10T22:58:09.073Z,1.90
2019-02-10T23:00:54.484Z,1.80
2019-02-10T23:03:22.646Z,1.60
2019-02-10T23:05:50.602Z,1.80
2019-02-10T23:08:18.657Z,2.03
2019-02-10T23:10:46.297Z,1.63
2019-02-10T23:13:14.832Z,1.93
2019-02-10T23:15:42.489Z,1.80
2019-02-10T23:18:10.670Z,1.90
2019-02-10T23:20:39.022Z,1.80
2019-02-10T23:23:07.209Z,1.83
2019-02-10T23:25:34.900Z,1.80
2019-02-10T23:28:02.538Z,1.80
2019-02-10T23:30:30.184Z,1.97
2019-02-10T23:32:58.072Z,2.10
2019-02-10T23:35:26.339Z,1.80
2019-02-10T23:37:54.385Z,2.00
2019-02-10T23:40:22.285Z,2.13
2019-02-10T23:42:50.237Z,2.33
2019-02-10T23:45:18.519Z,2.00
2019-02-10T23:47:46.316Z,1.93
2019-02-10T23:50:13.946Z,2.13
2019-02-10T23:52:41.891Z,2.20
2019-02-10T23:55:10.190Z,2.10
2019-02-10T23:57:38.116Z,2.20
